New Mine, Texas
Current Conditions -  °F | °C
As of 2:35 PM on Saturday 20 Dec 2014 (Local Time) from KOSA Reporting Station
Overcast Overcast  
Wind Chill: 49°   Ceiling: 3200
Heat Index: 49°   Visibility: 5mi
Dew Point: 45°   Wind: 0mph
Humidity: 84%   Direction: NA
Pressure: 30.21"   Gusts: NA
Location:  32.9352°N, 94.9553°W
Report Text: KOSA 202035Z AUTO 00000KT 5SM SCT009 OVC032 10/07 A3021 RMK AO1 T00960071
Loading
Personal Weather Stations






























Interactive Weather Map New forecast layout! Learn more

10-Day Weather Forecast

Advertisements
Track Severe Weather on mobile